sensor_id;sensor_type;location;lat;lon;timestamp;pressure;altitude;pressure_sealevel;temperature;humidity
25947;BME280;13745;51.470;9.894;2023-05-19T00:00:42;100321.44;;;13.63;56.75
25947;BME280;13745;51.470;9.894;2023-05-19T00:03:29;100323.22;;;13.60;57.00
25947;BME280;13745;51.470;9.894;2023-05-19T00:06:16;100320.66;;;13.55;56.71
25947;BME280;13745;51.470;9.894;2023-05-19T00:09:05;100318.13;;;13.47;56.85
25947;BME280;13745;51.470;9.894;2023-05-19T00:11:52;100306.91;;;13.42;57.06
25947;BME280;13745;51.470;9.894;2023-05-19T00:14:40;100314.75;;;13.39;57.01
25947;BME280;13745;51.470;9.894;2023-05-19T00:17:25;100309.63;;;13.33;56.98
25947;BME280;13745;51.470;9.894;2023-05-19T00:20:11;100315.72;;;13.29;57.04
25947;BME280;13745;51.470;9.894;2023-05-19T00:22:56;100322.72;;;13.24;57.30
25947;BME280;13745;51.470;9.894;2023-05-19T00:25:41;100318.38;;;13.18;57.48
25947;BME280;13745;51.470;9.894;2023-05-19T00:28:28;100308.00;;;13.14;57.49
25947;BME280;13745;51.470;9.894;2023-05-19T00:31:13;100307.19;;;13.10;57.61
25947;BME280;13745;51.470;9.894;2023-05-19T00:33:58;100307.19;;;13.07;57.51
25947;BME280;13745;51.470;9.894;2023-05-19T00:36:44;100310.69;;;13.05;57.80
25947;BME280;13745;51.470;9.894;2023-05-19T00:39:31;100308.97;;;13.02;57.85
25947;BME280;13745;51.470;9.894;2023-05-19T00:42:16;100307.28;;;13.00;57.99
25947;BME280;13745;51.470;9.894;2023-05-19T00:45:03;100300.34;;;12.96;57.83
25947;BME280;13745;51.470;9.894;2023-05-19T00:47:48;100303.81;;;12.96;57.88
25947;BME280;13745;51.470;9.894;2023-05-19T00:50:33;100296.03;;;12.93;57.90
25947;BME280;13745;51.470;9.894;2023-05-19T00:53:19;100299.53;;;12.92;58.21
25947;BME280;13745;51.470;9.894;2023-05-19T00:56:04;100295.19;;;12.89;58.13
25947;BME280;13745;51.470;9.894;2023-05-19T00:58:51;100298.69;;;12.87;58.05
25947;BME280;13745;51.470;9.894;2023-05-19T01:01:38;100291.81;;;12.83;58.19
25947;BME280;13745;51.470;9.894;2023-05-19T01:04:24;100290.94;;;12.79;58.24
25947;BME280;13745;51.470;9.894;2023-05-19T01:07:10;100290.09;;;12.79;58.34
25947;BME280;13745;51.470;9.894;2023-05-19T01:09:56;100294.44;;;12.77;58.45
25947;BME280;13745;51.470;9.894;2023-05-19T01:12:41;100290.13;;;12.76;58.50
25947;BME280;13745;51.470;9.894;2023-05-19T01:15:27;100284.94;;;12.71;58.37
25947;BME280;13745;51.470;9.894;2023-05-19T01:18:18;100279.78;;;12.67;58.53
25947;BME280;13745;51.470;9.894;2023-05-19T01:24:36;100290.28;;;12.53;58.61
25947;BME280;13745;51.470;9.894;2023-05-19T01:27:42;100279.91;;;12.45;58.63
25947;BME280;13745;51.470;9.894;2023-05-19T01:30:34;100289.47;;;12.38;58.64
25947;BME280;13745;51.470;9.894;2023-05-19T01:33:22;100284.34;;;12.34;58.81
25947;BME280;13745;51.470;9.894;2023-05-19T01:36:07;100282.59;;;12.33;59.00
25947;BME280;13745;51.470;9.894;2023-05-19T01:38:55;100286.06;;;12.32;59.01
25947;BME280;13745;51.470;9.894;2023-05-19T01:41:42;100279.16;;;12.29;58.99
25947;BME280;13745;51.470;9.894;2023-05-19T01:44:30;100291.28;;;12.29;58.92
25947;BME280;13745;51.470;9.894;2023-05-19T01:47:18;100285.25;;;12.25;59.14
25947;BME280;13745;51.470;9.894;2023-05-19T01:50:04;100284.38;;;12.23;58.98
25947;BME280;13745;51.470;9.894;2023-05-19T01:52:50;100285.28;;;12.19;59.24
25947;BME280;13745;51.470;9.894;2023-05-19T01:55:41;100284.44;;;12.13;59.34
25947;BME280;13745;51.470;9.894;2023-05-19T01:58:31;100287.91;;;12.10;59.03
25947;BME280;13745;51.470;9.894;2023-05-19T02:01:25;100286.22;;;12.04;59.42
25947;BME280;13745;51.470;9.894;2023-05-19T02:04:23;100288.84;;;12.00;59.50
25947;BME280;13745;51.470;9.894;2023-05-19T02:07:16;100286.25;;;11.97;59.22
25947;BME280;13745;51.470;9.894;2023-05-19T02:10:09;100284.53;;;11.93;59.38
25947;BME280;13745;51.470;9.894;2023-05-19T02:13:00;100288.00;;;11.90;59.36
25947;BME280;13745;51.470;9.894;2023-05-19T02:15:49;100291.47;;;11.89;59.20
25947;BME280;13745;51.470;9.894;2023-05-19T02:18:38;100285.41;;;11.82;59.44
25947;BME280;13745;51.470;9.894;2023-05-19T02:21:29;100281.94;;;11.79;59.64
25947;BME280;13745;51.470;9.894;2023-05-19T02:24:14;100288.91;;;11.77;59.61
25947;BME280;13745;51.470;9.894;2023-05-19T02:27:00;100287.16;;;11.74;59.57
25947;BME280;13745;51.470;9.894;2023-05-19T02:29:45;100282.81;;;11.75;59.81
25947;BME280;13745;51.470;9.894;2023-05-19T02:32:30;100282.00;;;11.70;59.88
25947;BME280;13745;51.470;9.894;2023-05-19T02:35:16;100274.22;;;11.68;60.03
25947;BME280;13745;51.470;9.894;2023-05-19T02:38:03;100278.53;;;11.66;60.34
25947;BME280;13745;51.470;9.894;2023-05-19T02:40:50;100281.13;;;11.65;60.19
25947;BME280;13745;51.470;9.894;2023-05-19T02:43:34;100276.81;;;11.67;60.26
25947;BME280;13745;51.470;9.894;2023-05-19T02:46:20;100272.47;;;11.69;60.38
25947;BME280;13745;51.470;9.894;2023-05-19T02:49:05;100280.25;;;11.70;60.34
25947;BME280;13745;51.470;9.894;2023-05-19T02:51:50;100270.72;;;11.71;60.51
25947;BME280;13745;51.470;9.894;2023-05-19T02:54:37;100267.25;;;11.73;60.70
25947;BME280;13745;51.470;9.894;2023-05-19T02:57:22;100272.44;;;11.75;60.77
25947;BME280;13745;51.470;9.894;2023-05-19T03:00:08;100262.06;;;11.76;60.86
25947;BME280;13745;51.470;9.894;2023-05-19T03:02:53;100267.25;;;11.76;60.89
25947;BME280;13745;51.470;9.894;2023-05-19T03:05:38;100264.63;;;11.78;60.80
25947;BME280;13745;51.470;9.894;2023-05-19T03:08:23;100264.63;;;11.79;60.88
25947;BME280;13745;51.470;9.894;2023-05-19T03:11:10;100261.19;;;11.80;61.05
25947;BME280;13745;51.470;9.894;2023-05-19T03:13:55;100263.78;;;11.82;61.13
25947;BME280;13745;51.470;9.894;2023-05-19T03:16:40;100266.38;;;11.85;61.12
25947;BME280;13745;51.470;9.894;2023-05-19T03:19:26;100267.22;;;11.87;61.21
25947;BME280;13745;51.470;9.894;2023-05-19T03:22:11;100266.34;;;11.88;61.06
25947;BME280;13745;51.470;9.894;2023-05-19T03:24:56;100257.69;;;11.89;61.09
25947;BME280;13745;51.470;9.894;2023-05-19T03:27:43;100269.81;;;11.90;61.25
25947;BME280;13745;51.470;9.894;2023-05-19T03:30:28;100268.09;;;11.92;61.30
25947;BME280;13745;51.470;9.894;2023-05-19T03:33:22;100272.41;;;11.95;61.21
25947;BME280;13745;51.470;9.894;2023-05-19T03:36:08;100273.25;;;12.00;61.32
25947;BME280;13745;51.470;9.894;2023-05-19T03:38:56;100274.97;;;12.01;61.25
25947;BME280;13745;51.470;9.894;2023-05-19T03:41:42;100281.88;;;12.03;61.20
25947;BME280;13745;51.470;9.894;2023-05-19T03:44:28;100275.81;;;12.04;61.20
25947;BME280;13745;51.470;9.894;2023-05-19T03:47:13;100279.25;;;12.06;61.29
25947;BME280;13745;51.470;9.894;2023-05-19T03:50:28;100274.94;;;12.10;61.14
25947;BME280;13745;51.470;9.894;2023-05-19T03:53:23;100280.97;;;12.12;61.25
25947;BME280;13745;51.470;9.894;2023-05-19T03:56:10;100274.88;;;12.15;61.31
25947;BME280;13745;51.470;9.894;2023-05-19T03:58:56;100275.75;;;12.18;61.33
25947;BME280;13745;51.470;9.894;2023-05-19T04:01:43;100280.91;;;12.23;61.38
25947;BME280;13745;51.470;9.894;2023-05-19T04:04:29;100282.66;;;12.25;61.43
25947;BME280;13745;51.470;9.894;2023-05-19T04:07:14;100291.25;;;12.30;61.56
25947;BME280;13745;51.470;9.894;2023-05-19T04:09:59;100280.00;;;12.33;61.76
25947;BME280;13745;51.470;9.894;2023-05-19T04:12:45;100274.75;;;12.37;61.61
25947;BME280;13745;51.470;9.894;2023-05-19T04:15:32;100281.66;;;12.40;61.45
25947;BME280;13745;51.470;9.894;2023-05-19T04:18:19;100273.00;;;12.43;61.53
25947;BME280;13745;51.470;9.894;2023-05-19T04:21:04;100266.91;;;12.47;61.60
25947;BME280;13745;51.470;9.894;2023-05-19T04:23:51;100274.69;;;12.50;61.74
25947;BME280;13745;51.470;9.894;2023-05-19T04:26:36;100272.03;;;12.54;61.74
25947;BME280;13745;51.470;9.894;2023-05-19T04:29:24;100273.78;;;12.58;61.73
25947;BME280;13745;51.470;9.894;2023-05-19T04:32:10;100274.59;;;12.62;61.57
25947;BME280;13745;51.470;9.894;2023-05-19T04:34:58;100272.81;;;12.65;61.80
25947;BME280;13745;51.470;9.894;2023-05-19T04:37:45;100269.34;;;12.70;61.68
25947;BME280;13745;51.470;9.894;2023-05-19T04:40:33;100271.88;;;12.74;61.59
25947;BME280;13745;51.470;9.894;2023-05-19T04:43:18;100270.13;;;12.79;61.43
25947;BME280;13745;51.470;9.894;2023-05-19T04:46:05;100267.50;;;12.82;61.28
25947;BME280;13745;51.470;9.894;2023-05-19T04:48:50;100273.53;;;12.87;61.18
25947;BME280;13745;51.470;9.894;2023-05-19T04:51:37;100267.44;;;12.91;61.11
25947;BME280;13745;51.470;9.894;2023-05-19T04:54:24;100274.34;;;12.96;61.14
25947;BME280;13745;51.470;9.894;2023-05-19T04:57:09;100282.09;;;13.02;60.89
25947;BME280;13745;51.470;9.894;2023-05-19T04:59:56;100275.97;;;13.06;60.98
25947;BME280;13745;51.470;9.894;2023-05-19T05:02:44;100271.56;;;13.12;60.75
25947;BME280;13745;51.470;9.894;2023-05-19T05:05:30;100275.88;;;13.21;61.14
25947;BME280;13745;51.470;9.894;2023-05-19T05:08:17;100274.97;;;13.25;61.23
25947;BME280;13745;51.470;9.894;2023-05-19T05:11:06;100281.81;;;13.35;60.99
25947;BME280;13745;51.470;9.894;2023-05-19T05:13:52;100277.38;;;13.43;61.08
25947;BME280;13745;51.470;9.894;2023-05-19T05:16:41;100273.81;;;13.52;60.97
25947;BME280;13745;51.470;9.894;2023-05-19T05:19:30;100278.03;;;13.62;61.05
25947;BME280;13745;51.470;9.894;2023-05-19T05:22:16;100286.63;;;13.70;60.89
25947;BME280;13745;51.470;9.894;2023-05-19T05:25:03;100279.59;;;13.78;60.83
25947;BME280;13745;51.470;9.894;2023-05-19T05:27:49;100277.75;;;13.87;60.93
25947;BME280;13745;51.470;9.894;2023-05-19T05:30:35;100287.19;;;13.95;60.62
25947;BME280;13745;51.470;9.894;2023-05-19T05:33:22;100273.25;;;14.01;60.90
25947;BME280;13745;51.470;9.894;2023-05-19T05:36:07;100284.47;;;14.08;60.54
25947;BME280;13745;51.470;9.894;2023-05-19T05:38:53;100273.03;;;14.15;60.49
25947;BME280;13745;51.470;9.894;2023-05-19T05:41:40;100274.72;;;14.20;60.35
25947;BME280;13745;51.470;9.894;2023-05-19T05:44:28;100278.94;;;14.29;60.37
25947;BME280;13745;51.470;9.894;2023-05-19T05:47:15;100282.28;;;14.40;60.39
25947;BME280;13745;51.470;9.894;2023-05-19T05:50:03;100280.41;;;14.50;60.10
25947;BME280;13745;51.470;9.894;2023-05-19T05:52:49;100273.31;;;14.59;59.83
25947;BME280;13745;51.470;9.894;2023-05-19T05:55:35;100271.41;;;14.69;59.53
25947;BME280;13745;51.470;9.894;2023-05-19T05:58:23;100276.44;;;14.80;59.79
25947;BME280;13745;51.470;9.894;2023-05-19T06:01:08;100273.69;;;14.91;59.23
25947;BME280;13745;51.470;9.894;2023-05-19T06:03:54;100278.69;;;15.03;58.96
25947;BME280;13745;51.470;9.894;2023-05-19T06:06:41;100273.25;;;15.16;59.04
25947;BME280;13745;51.470;9.894;2023-05-19T06:09:26;100268.59;;;15.32;58.62
25947;BME280;13745;51.470;9.894;2023-05-19T06:12:13;100271.66;;;15.54;58.53
25947;BME280;13745;51.470;9.894;2023-05-19T06:15:05;100267.72;;;15.78;58.57
25947;BME280;13745;51.470;9.894;2023-05-19T06:18:10;100268.91;;;16.07;58.52
25947;BME280;13745;51.470;9.894;2023-05-19T06:20:57;100273.66;;;16.28;57.72
25947;BME280;13745;51.470;9.894;2023-05-19T06:23:42;100268.03;;;16.45;57.70
25947;BME280;13745;51.470;9.894;2023-05-19T06:26:28;100269.31;;;16.66;57.75
25947;BME280;13745;51.470;9.894;2023-05-19T06:29:13;100264.47;;;16.86;57.80
25947;BME280;13745;51.470;9.894;2023-05-19T06:32:00;100264.78;;;17.08;57.46
25947;BME280;13745;51.470;9.894;2023-05-19T06:34:45;100265.13;;;17.28;57.65
25947;BME280;13745;51.470;9.894;2023-05-19T06:37:36;100257.91;;;17.38;57.45
25947;BME280;13745;51.470;9.894;2023-05-19T06:40:22;100259.25;;;17.51;57.74
25947;BME280;13745;51.470;9.894;2023-05-19T06:43:07;100260.69;;;17.63;57.54
25947;BME280;13745;51.470;9.894;2023-05-19T06:46:10;100264.31;;;17.90;57.50
25947;BME280;13745;51.470;9.894;2023-05-19T06:48:57;100255.81;;;18.11;57.20
25947;BME280;13745;51.470;9.894;2023-05-19T06:51:45;100250.63;;;18.38;56.75
25947;BME280;13745;51.470;9.894;2023-05-19T06:54:31;100255.13;;;18.61;56.60
25947;BME280;13745;51.470;9.894;2023-05-19T06:57:16;100252.78;;;18.81;56.38
25947;BME280;13745;51.470;9.894;2023-05-19T07:00:03;100244.41;;;18.95;56.27
25947;BME280;13745;51.470;9.894;2023-05-19T07:02:49;100244.88;;;19.07;55.60
25947;BME280;13745;51.470;9.894;2023-05-19T07:05:36;100244.47;;;19.20;55.60
25947;BME280;13745;51.470;9.894;2023-05-19T07:08:22;100251.91;;;19.32;55.48
25947;BME280;13745;51.470;9.894;2023-05-19T07:11:07;100242.75;;;19.42;55.33
25947;BME280;13745;51.470;9.894;2023-05-19T07:13:52;100243.25;;;19.53;55.15
25947;BME280;13745;51.470;9.894;2023-05-19T07:16:43;100246.38;;;19.64;55.06
25947;BME280;13745;51.470;9.894;2023-05-19T07:19:28;100245.13;;;19.75;54.82
25947;BME280;13745;51.470;9.894;2023-05-19T07:22:15;100242.03;;;19.87;54.53
25947;BME280;13745;51.470;9.894;2023-05-19T07:25:00;100245.91;;;20.00;54.24
25947;BME280;13745;51.470;9.894;2023-05-19T07:27:46;100241.13;;;20.11;54.13
25947;BME280;13745;51.470;9.894;2023-05-19T07:30:31;100245.09;;;20.22;54.01
25947;BME280;13745;51.470;9.894;2023-05-19T07:33:17;100235.97;;;20.30;53.93
25947;BME280;13745;51.470;9.894;2023-05-19T07:36:02;100233.81;;;20.40;53.31
25947;BME280;13745;51.470;9.894;2023-05-19T07:38:49;100227.38;;;20.48;53.19
25947;BME280;13745;51.470;9.894;2023-05-19T07:41:34;100227.84;;;20.58;53.01
25947;BME280;13745;51.470;9.894;2023-05-19T07:44:18;100229.19;;;20.68;53.06
25947;BME280;13745;51.470;9.894;2023-05-19T07:47:04;100219.06;;;20.80;52.45
25947;BME280;13745;51.470;9.894;2023-05-19T07:49:49;100217.69;;;20.91;52.54
25947;BME280;13745;51.470;9.894;2023-05-19T07:52:34;100223.31;;;21.04;52.02
25947;BME280;13745;51.470;9.894;2023-05-19T07:55:21;100215.78;;;21.15;52.38
25947;BME280;13745;51.470;9.894;2023-05-19T07:58:06;100214.44;;;21.27;51.52
25947;BME280;13745;51.470;9.894;2023-05-19T08:00:52;100219.09;;;21.41;51.48
25947;BME280;13745;51.470;9.894;2023-05-19T08:03:37;100217.81;;;21.49;51.09
25947;BME280;13745;51.470;9.894;2023-05-19T08:06:22;100211.16;;;21.61;50.88
25947;BME280;13745;51.470;9.894;2023-05-19T08:09:08;100203.50;;;21.74;51.00
25947;BME280;13745;51.470;9.894;2023-05-19T08:11:54;100207.31;;;21.87;50.84
25947;BME280;13745;51.470;9.894;2023-05-19T08:14:39;100215.50;;;22.00;49.88
25947;BME280;13745;51.470;9.894;2023-05-19T08:17:24;100199.31;;;22.07;50.25
25947;BME280;13745;51.470;9.894;2023-05-19T08:20:10;100191.69;;;22.20;50.16
25947;BME280;13745;51.470;9.894;2023-05-19T08:22:55;100191.88;;;22.34;50.39
25947;BME280;13745;51.470;9.894;2023-05-19T08:25:40;100185.03;;;22.48;50.39
25947;BME280;13745;51.470;9.894;2023-05-19T08:28:26;100181.72;;;22.61;50.38
25947;BME280;13745;51.470;9.894;2023-05-19T08:31:12;100186.28;;;22.75;49.50
25947;BME280;13745;51.470;9.894;2023-05-19T08:33:57;100188.19;;;22.90;49.74
25947;BME280;13745;51.470;9.894;2023-05-19T08:36:42;100181.19;;;23.07;48.87
25947;BME280;13745;51.470;9.894;2023-05-19T08:39:28;100179.53;;;23.21;48.98
25947;BME280;13745;51.470;9.894;2023-05-19T08:42:13;100180.63;;;23.35;47.61
25947;BME280;13745;51.470;9.894;2023-05-19T08:45:00;100179.94;;;23.47;47.53
25947;BME280;13745;51.470;9.894;2023-05-19T08:47:46;100189.28;;;23.54;47.31
25947;BME280;13745;51.470;9.894;2023-05-19T08:50:34;100166.38;;;23.53;46.64
25947;BME280;13745;51.470;9.894;2023-05-19T08:53:33;100168.50;;;23.46;46.53
25947;BME280;13745;51.470;9.894;2023-05-19T08:56:21;100166.13;;;23.42;46.72
25947;BME280;13745;51.470;9.894;2023-05-19T08:59:08;100162.69;;;23.40;46.17
25947;BME280;13745;51.470;9.894;2023-05-19T09:01:55;100159.47;;;23.50;46.20
25947;BME280;13745;51.470;9.894;2023-05-19T09:04:41;100159.69;;;23.63;46.21
25947;BME280;13745;51.470;9.894;2023-05-19T09:07:30;100160.88;;;23.89;46.33
25947;BME280;13745;51.470;9.894;2023-05-19T09:10:17;100154.22;;;24.14;46.24
25947;BME280;13745;51.470;9.894;2023-05-19T09:13:04;100146.44;;;24.42;45.75
25947;BME280;13745;51.470;9.894;2023-05-19T09:15:51;100154.16;;;24.61;45.30
25947;BME280;13745;51.470;9.894;2023-05-19T09:18:38;100153.91;;;24.80;44.75
25947;BME280;13745;51.470;9.894;2023-05-19T09:21:28;100144.34;;;25.07;44.50
25947;BME280;13745;51.470;9.894;2023-05-19T09:24:15;100138.38;;;25.32;44.02
25947;BME280;13745;51.470;9.894;2023-05-19T09:27:00;100145.66;;;25.57;43.67
25947;BME280;13745;51.470;9.894;2023-05-19T09:29:47;100133.97;;;25.74;43.86
25947;BME280;13745;51.470;9.894;2023-05-19T09:32:33;100148.19;;;25.73;42.50
25947;BME280;13745;51.470;9.894;2023-05-19T09:35:20;100147.06;;;25.77;43.03
25947;BME280;13745;51.470;9.894;2023-05-19T09:38:06;100151.31;;;25.80;43.10
25947;BME280;13745;51.470;9.894;2023-05-19T09:40:51;100149.03;;;25.88;42.82
25947;BME280;13745;51.470;9.894;2023-05-19T09:43:37;100144.81;;;25.98;42.86
25947;BME280;13745;51.470;9.894;2023-05-19T09:46:23;100153.50;;;26.14;41.19
25947;BME280;13745;51.470;9.894;2023-05-19T09:49:11;100149.09;;;26.27;41.17
25947;BME280;13745;51.470;9.894;2023-05-19T09:51:58;100137.56;;;26.41;41.39
25947;BME280;13745;51.470;9.894;2023-05-19T09:54:43;100133.56;;;26.61;41.45
25947;BME280;13745;51.470;9.894;2023-05-19T09:57:32;100141.47;;;26.75;40.37
25947;BME280;13745;51.470;9.894;2023-05-19T10:00:19;100142.13;;;26.92;40.89
25947;BME280;13745;51.470;9.894;2023-05-19T10:03:04;100140.13;;;27.08;40.33
25947;BME280;13745;51.470;9.894;2023-05-19T10:05:51;100136.19;;;27.26;41.02
25947;BME280;13745;51.470;9.894;2023-05-19T10:08:39;100128.94;;;27.41;39.76
25947;BME280;13745;51.470;9.894;2023-05-19T10:11:25;100117.81;;;27.47;40.05
25947;BME280;13745;51.470;9.894;2023-05-19T10:14:11;100116.97;;;27.47;39.65
25947;BME280;13745;51.470;9.894;2023-05-19T10:16:57;100114.22;;;27.48;39.02
25947;BME280;13745;51.470;9.894;2023-05-19T10:19:42;100116.66;;;27.51;38.73
25947;BME280;13745;51.470;9.894;2023-05-19T10:22:28;100116.53;;;27.53;38.44
25947;BME280;13745;51.470;9.894;2023-05-19T10:25:14;100119.94;;;27.55;39.73
25947;BME280;13745;51.470;9.894;2023-05-19T10:28:05;100113.75;;;27.54;39.88
25947;BME280;13745;51.470;9.894;2023-05-19T10:30:53;100104.84;;;27.42;39.80
25947;BME280;13745;51.470;9.894;2023-05-19T10:33:55;100119.25;;;27.27;39.79
25947;BME280;13745;51.470;9.894;2023-05-19T10:36:47;100109.34;;;27.17;39.55
25947;BME280;13745;51.470;9.894;2023-05-19T10:39:33;100091.47;;;27.19;39.65
25947;BME280;13745;51.470;9.894;2023-05-19T10:42:28;100100.72;;;27.26;40.60
25947;BME280;13745;51.470;9.894;2023-05-19T10:45:20;100105.38;;;27.35;40.57
25947;BME280;13745;51.470;9.894;2023-05-19T10:48:09;100101.94;;;27.46;40.25
25947;BME280;13745;51.470;9.894;2023-05-19T10:50:55;100098.19;;;27.61;40.04
25947;BME280;13745;51.470;9.894;2023-05-19T10:53:41;100095.81;;;27.82;40.80
25947;BME280;13745;51.470;9.894;2023-05-19T10:56:30;100091.31;;;27.82;40.09
25947;BME280;13745;51.470;9.894;2023-05-19T10:59:33;100095.91;;;27.80;39.69
25947;BME280;13745;51.470;9.894;2023-05-19T11:02:37;100098.50;;;27.69;39.88
25947;BME280;13745;51.470;9.894;2023-05-19T11:05:27;100087.47;;;27.50;39.15
25947;BME280;13745;51.470;9.894;2023-05-19T11:08:13;100093.34;;;27.42;39.74
25947;BME280;13745;51.470;9.894;2023-05-19T11:11:11;100079.16;;;27.41;39.89
25947;BME280;13745;51.470;9.894;2023-05-19T11:13:58;100077.34;;;27.42;40.21
25947;BME280;13745;51.470;9.894;2023-05-19T11:16:47;100080.53;;;27.47;40.27
25947;BME280;13745;51.470;9.894;2023-05-19T11:19:34;100078.25;;;27.54;40.33
25947;BME280;13745;51.470;9.894;2023-05-19T11:22:22;100079.66;;;27.59;39.22
25947;BME280;13745;51.470;9.894;2023-05-19T11:25:08;100081.09;;;27.63;38.93
25947;BME280;13745;51.470;9.894;2023-05-19T11:27:53;100086.34;;;27.65;38.16
25947;BME280;13745;51.470;9.894;2023-05-19T11:30:40;100077.91;;;27.71;39.59
25947;BME280;13745;51.470;9.894;2023-05-19T11:33:27;100081.72;;;27.80;38.76
25947;BME280;13745;51.470;9.894;2023-05-19T11:36:13;100080.44;;;27.85;38.71
25947;BME280;13745;51.470;9.894;2023-05-19T11:39:00;100073.16;;;27.87;37.69
25947;BME280;13745;51.470;9.894;2023-05-19T11:41:46;100065.56;;;27.94;38.21
25947;BME280;13745;51.470;9.894;2023-05-19T11:44:30;100060.97;;;27.96;38.96
25947;BME280;13745;51.470;9.894;2023-05-19T11:47:16;100069.59;;;27.99;39.13
25947;BME280;13745;51.470;9.894;2023-05-19T11:50:03;100060.06;;;28.08;39.58
25947;BME280;13745;51.470;9.894;2023-05-19T11:52:49;100070.88;;;28.18;39.30
25947;BME280;13745;51.470;9.894;2023-05-19T11:55:41;100066.84;;;28.12;39.65
25947;BME280;13745;51.470;9.894;2023-05-19T11:58:26;100079.22;;;28.13;39.65
25947;BME280;13745;51.470;9.894;2023-05-19T12:01:11;100076.09;;;28.19;39.37
25947;BME280;13745;51.470;9.894;2023-05-19T12:03:56;100072.69;;;28.17;38.94
25947;BME280;13745;51.470;9.894;2023-05-19T12:06:43;100072.09;;;28.14;39.04
25947;BME280;13745;51.470;9.894;2023-05-19T12:09:28;100070.16;;;28.16;39.06
25947;BME280;13745;51.470;9.894;2023-05-19T12:12:14;100062.59;;;28.10;38.97
25947;BME280;13745;51.470;9.894;2023-05-19T12:15:02;100062.00;;;28.06;38.66
25947;BME280;13745;51.470;9.894;2023-05-19T12:17:48;100073.25;;;27.98;39.12
25947;BME280;13745;51.470;9.894;2023-05-19T12:20:34;100067.75;;;27.89;38.17
25947;BME280;13745;51.470;9.894;2023-05-19T12:23:21;100061.66;;;27.87;38.67
25947;BME280;13745;51.470;9.894;2023-05-19T12:26:07;100070.03;;;27.93;39.32
25947;BME280;13745;51.470;9.894;2023-05-19T12:28:52;100068.59;;;27.89;38.40
25947;BME280;13745;51.470;9.894;2023-05-19T12:31:37;100054.00;;;27.82;38.77
25947;BME280;13745;51.470;9.894;2023-05-19T12:34:22;100045.53;;;27.88;38.53
25947;BME280;13745;51.470;9.894;2023-05-19T12:37:09;100048.59;;;27.95;38.79
25947;BME280;13745;51.470;9.894;2023-05-19T12:39:56;100044.75;;;27.99;38.60
25947;BME280;13745;51.470;9.894;2023-05-19T12:42:43;100049.28;;;28.10;38.70
25947;BME280;13745;51.470;9.894;2023-05-19T12:45:32;100047.41;;;28.23;38.58
25947;BME280;13745;51.470;9.894;2023-05-19T12:48:20;100046.72;;;28.32;38.00
25947;BME280;13745;51.470;9.894;2023-05-19T12:51:06;100050.00;;;28.36;38.36
25947;BME280;13745;51.470;9.894;2023-05-19T12:53:52;100046.00;;;28.30;38.37
25947;BME280;13745;51.470;9.894;2023-05-19T12:56:48;100051.69;;;28.13;38.15
25947;BME280;13745;51.470;9.894;2023-05-19T12:59:33;100052.13;;;27.95;38.17
25947;BME280;13745;51.470;9.894;2023-05-19T13:02:18;100049.25;;;27.75;37.75
25947;BME280;13745;51.470;9.894;2023-05-19T13:05:04;100053.25;;;27.56;38.27
25947;BME280;13745;51.470;9.894;2023-05-19T13:07:57;100053.09;;;27.34;37.99
25947;BME280;13745;51.470;9.894;2023-05-19T13:10:43;100059.38;;;27.20;38.17
25947;BME280;13745;51.470;9.894;2023-05-19T13:13:30;100052.19;;;27.09;38.05
25947;BME280;13745;51.470;9.894;2023-05-19T13:16:15;100052.59;;;27.03;38.43
25947;BME280;13745;51.470;9.894;2023-05-19T13:19:00;100044.06;;;26.98;38.49
25947;BME280;13745;51.470;9.894;2023-05-19T13:21:46;100046.19;;;26.93;39.09
25947;BME280;13745;51.470;9.894;2023-05-19T13:24:32;100041.84;;;26.92;38.54
25947;BME280;13745;51.470;9.894;2023-05-19T13:27:17;100035.88;;;26.88;38.01
25947;BME280;13745;51.470;9.894;2023-05-19T13:30:05;100037.91;;;26.85;39.09
25947;BME280;13745;51.470;9.894;2023-05-19T13:32:50;100030.78;;;26.85;38.81
25947;BME280;13745;51.470;9.894;2023-05-19T13:35:36;100034.94;;;26.77;39.09
25947;BME280;13745;51.470;9.894;2023-05-19T13:38:21;100035.56;;;26.68;39.00
25947;BME280;13745;51.470;9.894;2023-05-19T13:41:06;100027.50;;;26.56;38.89
25947;BME280;13745;51.470;9.894;2023-05-19T13:43:52;100028.75;;;26.51;39.35
25947;BME280;13745;51.470;9.894;2023-05-19T13:46:38;100028.44;;;26.43;39.79
25947;BME280;13745;51.470;9.894;2023-05-19T13:49:24;100027.69;;;26.41;40.27
25947;BME280;13745;51.470;9.894;2023-05-19T13:52:09;100027.69;;;26.41;40.05
25947;BME280;13745;51.470;9.894;2023-05-19T13:54:54;100025.97;;;26.40;39.79
25947;BME280;13745;51.470;9.894;2023-05-19T13:57:39;100021.53;;;26.40;40.06
25947;BME280;13745;51.470;9.894;2023-05-19T14:00:25;100020.94;;;26.35;39.73
25947;BME280;13745;51.470;9.894;2023-05-19T14:03:11;100029.44;;;26.27;39.83
25947;BME280;13745;51.470;9.894;2023-05-19T14:05:58;100019.22;;;26.21;40.31
25947;BME280;13745;51.470;9.894;2023-05-19T14:08:44;100020.59;;;26.14;40.85
25947;BME280;13745;51.470;9.894;2023-05-19T14:11:29;100040.03;;;26.02;40.19
25947;BME280;13745;51.470;9.894;2023-05-19T14:14:14;100027.75;;;25.87;40.05
25947;BME280;13745;51.470;9.894;2023-05-19T14:17:00;100024.13;;;25.75;41.09
25947;BME280;13745;51.470;9.894;2023-05-19T14:19:46;100014.81;;;25.68;40.97
25947;BME280;13745;51.470;9.894;2023-05-19T14:22:31;100025.81;;;25.62;41.27
25947;BME280;13745;51.470;9.894;2023-05-19T14:25:17;100032.31;;;25.58;40.63
25947;BME280;13745;51.470;9.894;2023-05-19T14:28:02;100027.53;;;25.63;41.61
25947;BME280;13745;51.470;9.894;2023-05-19T14:30:48;100026.19;;;25.70;40.96
25947;BME280;13745;51.470;9.894;2023-05-19T14:33:33;100018.97;;;25.72;41.31
25947;BME280;13745;51.470;9.894;2023-05-19T14:36:19;100031.41;;;25.71;41.65